Time;durP1;ratioP1;P1;durP2;ratioP2;P2;SDS_P1;SDS_P2;PMS_P1;PMS_P2;Temp;Humidity;BMP_temperature;BMP_pressure;BME280_temperature;BME280_humidity;BME280_pressure;Samples;Min_cycle;Max_cycle;Signal;HPM_P1;HPM_P2
2023/09/12 00:02:07;;;;;;;;;;;18.70;99.90;;;;;;21078043;28;19977;-73
2023/09/12 00:12:08;;;;;;;;;;;18.90;99.90;;;;;;21074958;28;19927;-73
2023/09/12 00:22:08;;;;;;;;;;;18.90;99.90;;;;;;21072714;28;20346;-73
2023/09/12 00:32:09;;;;;;;;;;;19.00;99.90;;;;;;21075853;28;19916;-73
2023/09/12 00:42:09;;;;;;;;;;;18.90;99.90;;;;;;21070483;28;19916;-73
2023/09/12 00:52:11;;;;;;;;;;;18.40;99.90;;;;;;21070921;28;19916;-73
2023/09/12 01:02:11;;;;;;;;;;;18.00;99.90;;;;;;21039115;28;19923;-73
2023/09/12 01:12:14;;;;;;;;;;;17.70;99.90;;;;;;21032681;28;20363;-72
2023/09/12 01:22:15;;;;;;;;;;;17.20;99.90;;;;;;21063369;28;19995;-73
2023/09/12 01:32:16;;;;;;;;;;;17.40;99.90;;;;;;21069196;28;19955;-73
2023/09/12 01:42:19;;;;;;;;;;;18.30;99.90;;;;;;21072096;22;19935;-76
2023/09/12 01:52:21;;;;;;;;;;;18.40;99.90;;;;;;21059714;28;20301;-75
2023/09/12 02:02:21;;;;;;;;;;;18.40;99.90;;;;;;21089632;28;20301;-75
2023/09/12 02:12:22;;;;;;;;;;;18.10;99.90;;;;;;21087612;28;20007;-75
2023/09/12 02:22:23;;;;;;;;;;;18.10;99.90;;;;;;21055244;28;19943;-74
2023/09/12 02:32:23;;;;;;;;;;;18.20;99.90;;;;;;21082685;28;19955;-74
2023/09/12 02:42:25;;;;;;;;;;;18.20;99.90;;;;;;21063256;28;19920;-74
2023/09/12 02:52:25;;;;;;;;;;;18.20;99.90;;;;;;21086223;28;20006;-75
2023/09/12 03:02:29;;;;;;;;;;;18.20;99.90;;;;;;21093775;28;20444;-76
2023/09/12 03:12:29;;;;;;;;;;;18.00;99.90;;;;;;21083324;28;19920;-75
2023/09/12 03:22:32;;;;;;;;;;;17.80;99.90;;;;;;21085538;28;20028;-74
2023/09/12 03:32:32;;;;;;;;;;;17.90;99.90;;;;;;21064801;28;19916;-73
2023/09/12 03:42:33;;;;;;;;;;;17.90;99.90;;;;;;21063954;28;20362;-74
2023/09/12 03:52:34;;;;;;;;;;;17.80;99.90;;;;;;21063938;28;19973;-74
2023/09/12 04:02:35;;;;;;;;;;;17.70;99.90;;;;;;21067278;28;20013;-75
2023/09/12 04:12:36;;;;;;;;;;;17.50;99.90;;;;;;21059918;28;20388;-75
2023/09/12 04:22:36;;;;;;;;;;;17.50;99.90;;;;;;21078684;28;19912;-74
2023/09/12 04:32:38;;;;;;;;;;;17.50;99.90;;;;;;21059156;28;19916;-74
2023/09/12 04:42:38;;;;;;;;;;;17.50;99.90;;;;;;21058101;28;19916;-74
2023/09/12 04:52:39;;;;;;;;;;;17.30;99.90;;;;;;21060816;28;19969;-74
2023/09/12 05:02:40;;;;;;;;;;;17.30;99.90;;;;;;21071331;28;19912;-74
2023/09/12 05:12:41;;;;;;;;;;;17.20;99.90;;;;;;21040600;28;19927;-75
2023/09/12 05:22:41;;;;;;;;;;;17.30;99.90;;;;;;21056122;28;19912;-74
2023/09/12 05:32:42;;;;;;;;;;;17.40;99.90;;;;;;21056027;28;20005;-74
2023/09/12 05:42:43;;;;;;;;;;;17.50;99.90;;;;;;21055852;28;19916;-75
2023/09/12 05:52:44;;;;;;;;;;;17.60;99.90;;;;;;21066323;28;20336;-74
2023/09/12 06:02:47;;;;;;;;;;;17.60;99.90;;;;;;21047808;28;20328;-75
2023/09/12 06:12:49;;;;;;;;;;;17.80;99.90;;;;;;21072683;28;19970;-74
2023/09/12 06:22:50;;;;;;;;;;;18.00;99.90;;;;;;21072437;28;19912;-75
2023/09/12 06:32:51;;;;;;;;;;;18.70;99.90;;;;;;21080376;28;19923;-75
2023/09/12 06:42:52;;;;;;;;;;;19.70;99.90;;;;;;21086993;28;19916;-75
2023/09/12 06:52:52;;;;;;;;;;;20.50;99.90;;;;;;21086307;28;20293;-76
2023/09/12 07:02:53;;;;;;;;;;;20.70;99.90;;;;;;21074181;28;19955;-76
2023/09/12 07:12:54;;;;;;;;;;;20.30;99.90;;;;;;21078728;28;19920;-76
2023/09/12 07:22:55;;;;;;;;;;;20.10;99.90;;;;;;21094746;28;19923;-76
2023/09/12 07:32:56;;;;;;;;;;;20.50;99.90;;;;;;21083681;28;19960;-76
2023/09/12 07:42:56;;;;;;;;;;;21.90;99.90;;;;;;21086151;22;20303;-79
2023/09/12 07:52:57;;;;;;;;;;;23.00;99.90;;;;;;21069446;28;19923;-78
2023/09/12 08:02:58;;;;;;;;;;;23.20;99.90;;;;;;21083731;28;19920;-79
2023/09/12 08:12:58;;;;;;;;;;;22.80;99.90;;;;;;21090799;28;20267;-79
2023/09/12 08:22:59;;;;;;;;;;;24.30;99.90;;;;;;21101138;28;19920;-78
2023/09/12 08:33:03;;;;;;;;;;;23.90;99.90;;;;;;21081782;28;20385;-78
2023/09/12 08:43:04;;;;;;;;;;;26.00;99.90;;;;;;21075493;28;19916;-79
2023/09/12 08:53:04;;;;;;;;;;;27.70;99.90;;;;;;21058384;28;20335;-78
2023/09/12 09:03:05;;;;;;;;;;;27.10;99.90;;;;;;21057283;28;19919;-78
2023/09/12 09:13:06;;;;;;;;;;;26.10;99.90;;;;;;21057979;28;19916;-78
2023/09/12 09:23:11;;;;;;;;;;;26.90;99.90;;;;;;21070379;28;19974;-79
2023/09/12 09:33:12;;;;;;;;;;;28.60;99.90;;;;;;21077138;28;20023;-78
2023/09/12 09:43:18;;;;;;;;;;;29.00;99.90;;;;;;21079439;28;20022;-78
2023/09/12 09:53:21;;;;;;;;;;;30.00;99.90;;;;;;21081317;28;19923;-77
2023/09/12 10:03:23;;;;;;;;;;;28.50;99.90;;;;;;21061235;28;19916;-79
2023/09/12 10:13:26;;;;;;;;;;;30.60;99.90;;;;;;21081293;28;19916;-78
2023/09/12 10:23:30;;;;;;;;;;;28.00;99.90;;;;;;21106291;28;20150;-79
2023/09/12 10:33:31;;;;;;;;;;;30.20;99.90;;;;;;21103835;28;19920;-79
2023/09/12 10:43:34;;;;;;;;;;;30.70;99.90;;;;;;21076696;28;19916;-77
2023/09/12 10:53:35;;;;;;;;;;;31.10;99.90;;;;;;21086525;28;20339;-78
2023/09/12 11:03:36;;;;;;;;;;;31.40;99.50;;;;;;21081644;28;19912;-78
2023/09/12 11:13:40;;;;;;;;;;;32.30;96.40;;;;;;21055445;28;19962;-77
2023/09/12 11:23:40;;;;;;;;;;;32.10;90.00;;;;;;21038457;28;19919;-80
2023/09/12 11:33:41;;;;;;;;;;;32.30;90.50;;;;;;21070544;28;19987;-77
2023/09/12 11:43:42;;;;;;;;;;;31.90;90.80;;;;;;21061252;28;19932;-78
2023/09/12 11:53:43;;;;;;;;;;;29.80;94.60;;;;;;21051255;28;19920;-78
2023/09/12 12:03:43;;;;;;;;;;;30.30;93.40;;;;;;21072306;28;19916;-78
2023/09/12 12:13:44;;;;;;;;;;;30.40;94.00;;;;;;21081898;28;20030;-78
2023/09/12 12:23:45;;;;;;;;;;;30.90;91.80;;;;;;21081189;28;19912;-78
2023/09/12 12:33:49;;;;;;;;;;;31.40;91.70;;;;;;21062198;28;19916;-78
2023/09/12 12:43:58;;;;;;;;;;;30.90;90.70;;;;;;21053813;28;19970;-78
2023/09/12 12:54:06;;;;;;;;;;;30.70;91.80;;;;;;21093100;28;20278;-79
2023/09/12 13:04:09;;;;;;;;;;;30.80;90.40;;;;;;21095143;28;19966;-78
2023/09/12 13:14:10;;;;;;;;;;;30.60;91.70;;;;;;21078218;28;19916;-78
2023/09/12 13:24:13;;;;;;;;;;;30.70;91.80;;;;;;21053236;28;19912;-77
2023/09/12 13:34:13;;;;;;;;;;;30.80;92.10;;;;;;21055230;28;19970;-78
2023/09/12 13:44:14;;;;;;;;;;;30.30;91.60;;;;;;21057202;28;19917;-78
2023/09/12 13:54:15;;;;;;;;;;;29.70;91.40;;;;;;21040161;28;20046;-78
2023/09/12 14:04:17;;;;;;;;;;;29.60;92.10;;;;;;21059040;28;19920;-80
2023/09/12 14:14:18;;;;;;;;;;;29.60;91.70;;;;;;21055748;22;19935;-73
2023/09/12 14:24:18;;;;;;;;;;;29.50;91.20;;;;;;20982274;28;19936;-73
2023/09/12 14:34:19;;;;;;;;;;;29.70;91.50;;;;;;21001538;28;19963;-74
2023/09/12 14:44:23;;;;;;;;;;;31.00;90.50;;;;;;21001282;28;20007;-75
2023/09/12 14:54:23;;;;;;;;;;;32.40;88.50;;;;;;20993976;28;19916;-74
2023/09/12 15:04:24;;;;;;;;;;;32.80;87.40;;;;;;20999956;28;19923;-74
2023/09/12 15:14:25;;;;;;;;;;;32.80;88.90;;;;;;20998248;28;19916;-74
2023/09/12 15:24:26;;;;;;;;;;;31.80;91.30;;;;;;20997539;28;20061;-74
2023/09/12 15:34:27;;;;;;;;;;;31.50;93.80;;;;;;20992129;28;19924;-74
2023/09/12 15:44:28;;;;;;;;;;;30.80;94.70;;;;;;20995408;28;19912;-74
2023/09/12 15:54:30;;;;;;;;;;;29.80;96.50;;;;;;20982024;28;20291;-75
2023/09/12 16:04:30;;;;;;;;;;;29.50;97.90;;;;;;20988046;28;19939;-75
2023/09/12 16:14:31;;;;;;;;;;;29.10;99.90;;;;;;20971938;28;20378;-75
2023/09/12 16:24:32;;;;;;;;;;;28.90;99.90;;;;;;20974166;28;19979;-75
2023/09/12 16:34:32;;;;;;;;;;;28.50;99.90;;;;;;20982276;28;19959;-75
2023/09/12 16:44:33;;;;;;;;;;;28.30;99.90;;;;;;20976815;28;19912;-75
2023/09/12 16:54:34;;;;;;;;;;;28.00;99.90;;;;;;20990128;28;19916;-75
2023/09/12 17:04:34;;;;;;;;;;;27.20;99.90;;;;;;20989291;28;19967;-75
2023/09/12 17:14:35;;;;;;;;;;;26.70;99.90;;;;;;20995283;28;19923;-75
2023/09/12 17:24:36;;;;;;;;;;;25.90;99.90;;;;;;20984579;28;19975;-76
2023/09/12 17:34:40;;;;;;;;;;;24.50;99.90;;;;;;20969296;28;19943;-75
2023/09/12 17:44:40;;;;;;;;;;;24.00;99.90;;;;;;20990392;28;19912;-75
2023/09/12 17:54:42;;;;;;;;;;;21.70;99.90;;;;;;20988152;28;20347;-75
2023/09/12 18:04:42;;;;;;;;;;;21.30;99.90;;;;;;20982718;28;19913;-75
2023/09/12 18:14:43;;;;;;;;;;;21.40;99.90;;;;;;20984423;28;19968;-76
2023/09/12 18:24:44;;;;;;;;;;;22.00;99.90;;;;;;20987650;28;19916;-76
2023/09/12 18:34:44;;;;;;;;;;;22.20;99.90;;;;;;20997761;28;19917;-76
2023/09/12 18:44:45;;;;;;;;;;;22.00;99.90;;;;;;21001011;28;19917;-76
2023/09/12 18:54:45;;;;;;;;;;;21.30;99.90;;;;;;20999849;28;20007;-76
2023/09/12 19:04:46;;;;;;;;;;;19.90;99.90;;;;;;20983529;28;19920;-76
2023/09/12 19:14:47;;;;;;;;;;;19.80;99.90;;;;;;20998435;28;20304;-75
2023/09/12 19:24:48;;;;;;;;;;;19.60;99.90;;;;;;20989986;28;20010;-75
2023/09/12 19:34:48;;;;;;;;;;;19.90;99.90;;;;;;20974230;28;19917;-75
2023/09/12 19:44:49;;;;;;;;;;;19.40;99.90;;;;;;20985779;28;20346;-75
2023/09/12 19:54:50;;;;;;;;;;;19.00;99.90;;;;;;20974000;28;20386;-76
2023/09/12 20:04:51;;;;;;;;;;;19.20;99.90;;;;;;20961806;28;19947;-75
2023/09/12 20:14:51;;;;;;;;;;;19.10;99.90;;;;;;20986898;28;20070;-76
2023/09/12 20:24:52;;;;;;;;;;;18.90;99.90;;;;;;20936614;28;19945;-77
2023/09/12 20:34:53;;;;;;;;;;;18.80;99.90;;;;;;20982894;28;19963;-76
2023/09/12 20:44:53;;;;;;;;;;;18.70;99.90;;;;;;20962887;28;20359;-75
2023/09/12 20:54:54;;;;;;;;;;;18.90;99.90;;;;;;20965291;28;19960;-76
2023/09/12 21:04:55;;;;;;;;;;;19.30;99.90;;;;;;20965205;28;19913;-76
2023/09/12 21:14:55;;;;;;;;;;;19.40;99.90;;;;;;20974200;28;19932;-75
2023/09/12 21:24:56;;;;;;;;;;;19.10;99.90;;;;;;20967215;28;19995;-75
2023/09/12 21:35:10;;;;;;;;;;;19.20;99.90;;;;;;20960212;28;20033;-75
2023/09/12 21:45:12;;;;;;;;;;;19.30;99.90;;;;;;20961797;28;19913;-75
2023/09/12 21:55:15;;;;;;;;;;;19.40;99.90;;;;;;20958913;28;21379;-75
2023/09/12 22:05:16;;;;;;;;;;;19.20;99.90;;;;;;20966088;28;19952;-75
2023/09/12 22:15:16;;;;;;;;;;;19.30;99.90;;;;;;20997825;28;19960;-75
2023/09/12 22:25:17;;;;;;;;;;;19.60;99.90;;;;;;20985709;28;19920;-75
2023/09/12 22:35:18;;;;;;;;;;;19.70;99.90;;;;;;21002632;28;19916;-75
2023/09/12 22:45:18;;;;;;;;;;;19.50;99.90;;;;;;20984100;28;19916;-75
2023/09/12 22:55:19;;;;;;;;;;;19.40;99.90;;;;;;21014213;28;19916;-75
2023/09/12 23:05:20;;;;;;;;;;;19.40;99.90;;;;;;21026449;28;19948;-75
2023/09/12 23:15:20;;;;;;;;;;;19.40;99.90;;;;;;21024591;28;19920;-75
2023/09/12 23:25:21;;;;;;;;;;;19.30;99.90;;;;;;21026321;28;19916;-74
2023/09/12 23:35:21;;;;;;;;;;;19.10;99.90;;;;;;21024513;28;19955;-75
2023/09/12 23:45:22;;;;;;;;;;;18.90;99.90;;;;;;21023904;28;19944;-75
2023/09/12 23:55:23;;;;;;;;;;;18.80;99.90;;;;;;21022631;28;19939;-75
